createdAt,value
2023-03-23T15:57:58.753Z,24.19
2023-03-23T16:00:29.960Z,24.22
2023-03-23T16:03:01.877Z,24.00
2023-03-23T16:08:00.763Z,24.06
2023-03-23T16:10:30.404Z,24.11
2023-03-23T16:12:58.144Z,23.99
2023-03-23T16:15:26.784Z,24.12
2023-03-23T16:17:55.387Z,24.16
2023-03-23T16:20:24.307Z,24.09
2023-03-23T16:22:52.826Z,23.95
2023-03-23T16:25:20.762Z,23.67
2023-03-23T16:27:52.288Z,23.42
2023-03-23T16:30:24.182Z,23.45
2023-03-23T16:32:54.172Z,23.24
2023-03-23T16:35:24.322Z,23.26
2023-03-23T16:38:07.235Z,23.15
2023-03-23T16:40:39.943Z,23.17
2023-03-23T16:43:08.993Z,22.82
2023-03-23T16:45:45.230Z,22.68
2023-03-23T16:48:16.250Z,22.47
2023-03-23T16:50:45.573Z,22.43
2023-03-23T16:53:14.153Z,22.52
2023-03-23T16:55:44.406Z,22.57
2023-03-23T16:58:17.533Z,22.60
2023-03-23T17:00:50.058Z,22.47
2023-03-23T17:03:20.187Z,22.52
2023-03-23T17:05:50.539Z,22.36
2023-03-23T17:08:20.857Z,22.38
2023-03-23T17:10:49.819Z,22.38
2023-03-23T17:13:18.841Z,22.44
2023-03-23T17:15:47.634Z,22.36
2023-03-23T17:21:26.387Z,22.28
2023-03-23T17:23:54.773Z,22.28
2023-03-23T17:26:22.544Z,22.15
2023-03-23T17:28:50.477Z,22.09
2023-03-23T17:31:19.332Z,21.97
2023-03-23T17:33:47.283Z,21.96
2023-03-23T17:36:15.330Z,21.75
2023-03-23T17:38:43.233Z,21.52
2023-03-23T17:41:11.677Z,21.39
2023-03-23T17:43:41.341Z,21.29
2023-03-23T17:46:10.912Z,21.13
2023-03-23T17:48:39.957Z,21.13
2023-03-23T17:51:08.094Z,20.92
2023-03-23T17:53:36.707Z,20.93
2023-03-23T17:56:06.033Z,20.37
2023-03-23T17:58:35.535Z,20.41
2023-03-23T18:01:04.710Z,20.26
2023-03-23T18:03:34.628Z,20.24
2023-03-23T18:06:07.596Z,20.11
2023-03-23T18:08:37.677Z,19.94
2023-03-23T18:11:07.438Z,19.83
2023-03-23T18:13:37.248Z,19.82
2023-03-23T18:16:07.047Z,19.81
2023-03-23T18:18:35.161Z,19.50
2023-03-23T18:21:08.210Z,19.59
2023-03-23T18:23:46.158Z,19.52
2023-03-23T18:26:19.187Z,19.34
2023-03-23T18:28:48.618Z,19.12
2023-03-23T18:31:18.454Z,19.09
2023-03-23T18:33:48.165Z,19.19
2023-03-23T18:36:21.401Z,19.16
2023-03-23T18:38:51.378Z,19.03
2023-03-23T18:41:19.981Z,19.08
2023-03-23T18:43:48.541Z,19.03
2023-03-23T18:46:17.116Z,18.99
2023-03-23T18:48:45.996Z,18.89
2023-03-23T18:51:14.158Z,18.78
2023-03-23T18:53:42.019Z,18.89
2023-03-23T18:56:13.793Z,18.77
2023-03-23T18:58:43.211Z,18.63
2023-03-23T19:01:15.726Z,18.50
2023-03-23T19:03:45.624Z,18.59
2023-03-23T19:06:24.082Z,18.38
2023-03-23T19:08:54.725Z,18.36
2023-03-23T19:11:28.123Z,18.25
2023-03-23T19:14:02.251Z,18.05
2023-03-23T19:16:34.241Z,18.04
2023-03-23T19:19:05.445Z,17.90
2023-03-23T19:21:34.376Z,17.95
2023-03-23T19:24:04.081Z,18.08
2023-03-23T19:26:37.910Z,18.10
2023-03-23T19:31:39.885Z,18.01
2023-03-23T19:34:09.259Z,17.97
2023-03-23T19:36:39.780Z,18.05
2023-03-23T19:39:10.389Z,17.83
2023-03-23T19:41:39.108Z,17.80
2023-03-23T19:44:08.876Z,17.73
2023-03-23T19:46:37.897Z,17.74
2023-03-23T19:49:07.591Z,17.67
2023-03-23T19:51:35.981Z,17.47
2023-03-23T19:54:07.862Z,17.54
2023-03-23T19:56:36.963Z,17.74
2023-03-23T20:01:37.357Z,17.56
2023-03-23T20:04:07.103Z,17.17
2023-03-23T20:06:37.593Z,17.15
2023-03-23T20:09:07.460Z,17.24
2023-03-23T20:11:36.181Z,16.97
2023-03-23T20:14:04.288Z,17.07
2023-03-23T20:16:33.215Z,17.17
2023-03-23T20:19:01.514Z,17.08
2023-03-23T20:21:31.329Z,17.10
2023-03-23T20:23:59.480Z,17.15
2023-03-23T20:26:32.314Z,17.12
2023-03-23T20:29:01.993Z,17.09
2023-03-23T20:31:36.455Z,16.96
2023-03-23T20:34:09.209Z,16.91
2023-03-23T20:36:45.528Z,17.02
2023-03-23T20:39:21.401Z,16.94
2023-03-23T20:41:52.359Z,16.99
2023-03-23T20:44:23.346Z,16.90
2023-03-23T20:46:53.486Z,16.58
2023-03-23T20:49:22.637Z,16.63
2023-03-23T20:51:52.096Z,16.56
2023-03-23T20:54:22.944Z,16.71
2023-03-23T20:56:54.859Z,16.68
2023-03-23T20:59:25.543Z,16.70
2023-03-23T21:01:53.958Z,16.65
2023-03-23T21:04:27.598Z,16.69
2023-03-23T21:06:56.470Z,16.65
2023-03-23T21:09:25.561Z,16.60
2023-03-23T21:11:55.048Z,16.47
2023-03-23T21:14:24.086Z,16.41
2023-03-23T21:16:52.192Z,16.43
2023-03-23T21:19:20.872Z,16.42
2023-03-23T21:21:55.895Z,16.51
2023-03-23T21:24:30.124Z,16.47
2023-03-23T21:27:00.364Z,16.47
2023-03-23T21:29:30.925Z,16.28
2023-03-23T21:34:30.761Z,16.13
2023-03-23T21:36:59.416Z,16.09
2023-03-23T21:39:28.316Z,16.10
2023-03-23T21:41:59.584Z,15.97
2023-03-23T21:44:28.430Z,15.97
2023-03-23T21:46:57.010Z,15.76
2023-03-23T21:49:25.512Z,15.70
2023-03-23T21:51:54.180Z,15.68
2023-03-23T21:54:23.033Z,15.71
2023-03-23T21:56:52.481Z,15.80
2023-03-23T21:59:23.179Z,15.86
2023-03-23T22:01:52.180Z,15.57
2023-03-23T22:04:21.177Z,15.51
2023-03-23T22:06:49.800Z,15.45
2023-03-23T22:09:18.663Z,15.37
2023-03-23T22:11:47.383Z,15.37
2023-03-23T22:14:15.909Z,15.22
2023-03-23T22:16:44.802Z,15.24
2023-03-23T22:19:13.714Z,15.12
2023-03-23T22:21:43.235Z,15.27
2023-03-23T22:24:11.988Z,15.30
2023-03-23T22:26:40.599Z,15.11
2023-03-23T22:29:11.385Z,15.17
2023-03-23T22:31:40.235Z,15.07
2023-03-23T22:34:08.361Z,14.94
2023-03-23T22:36:36.348Z,14.89
2023-03-23T22:39:05.813Z,14.76
2023-03-23T22:41:42.074Z,14.53
2023-03-23T22:44:14.147Z,14.44
2023-03-23T22:46:42.378Z,14.41
2023-03-23T22:49:10.415Z,14.38
2023-03-23T22:51:39.537Z,14.47
2023-03-23T22:54:08.181Z,14.50
2023-03-23T22:56:38.104Z,14.40
2023-03-23T22:59:07.768Z,14.30
2023-03-23T23:01:36.662Z,13.77
2023-03-23T23:04:06.618Z,13.56
2023-03-23T23:06:35.723Z,13.58
2023-03-23T23:09:04.465Z,13.57
2023-03-23T23:11:33.078Z,13.44
2023-03-23T23:14:02.020Z,13.36
2023-03-23T23:16:31.134Z,13.57
2023-03-23T23:18:59.857Z,13.66
2023-03-23T23:21:28.882Z,13.46
2023-03-23T23:23:58.582Z,13.19
2023-03-23T23:26:27.689Z,13.10
2023-03-23T23:28:56.835Z,13.07
2023-03-23T23:31:31.608Z,12.99
2023-03-23T23:34:01.693Z,12.66
2023-03-23T23:36:32.008Z,12.45
2023-03-23T23:39:02.426Z,12.00
2023-03-23T23:41:31.137Z,11.90
2023-03-23T23:44:00.619Z,11.86
2023-03-23T23:46:33.535Z,12.10
2023-03-23T23:49:02.307Z,12.35
2023-03-23T23:51:33.828Z,12.37
2023-03-23T23:54:02.546Z,12.07
2023-03-23T23:56:31.314Z,11.74
2023-03-23T23:58:59.295Z,11.55
